sensor_id;sensor_type;location;lat;lon;timestamp;P1;durP1;ratioP1;P2;durP2;ratioP2
29712;SDS011;16623;53.632;10.016;2024-01-30T00:00:13;17.55;;;8.80;;
29712;SDS011;16623;53.632;10.016;2024-01-30T00:02:39;14.40;;;7.97;;
29712;SDS011;16623;53.632;10.016;2024-01-30T00:05:05;16.00;;;8.60;;
29712;SDS011;16623;53.632;10.016;2024-01-30T00:07:30;15.52;;;8.10;;
29712;SDS011;16623;53.632;10.016;2024-01-30T00:09:56;18.60;;;8.45;;
29712;SDS011;16623;53.632;10.016;2024-01-30T00:12:21;14.02;;;7.78;;
29712;SDS011;16623;53.632;10.016;2024-01-30T00:14:47;12.48;;;8.02;;
29712;SDS011;16623;53.632;10.016;2024-01-30T00:17:13;15.65;;;7.97;;
29712;SDS011;16623;53.632;10.016;2024-01-30T00:19:39;15.48;;;7.43;;
29712;SDS011;16623;53.632;10.016;2024-01-30T00:22:05;12.95;;;7.65;;
29712;SDS011;16623;53.632;10.016;2024-01-30T00:24:30;15.18;;;7.85;;
29712;SDS011;16623;53.632;10.016;2024-01-30T00:26:56;12.90;;;7.18;;
29712;SDS011;16623;53.632;10.016;2024-01-30T00:29:21;13.70;;;7.93;;
29712;SDS011;16623;53.632;10.016;2024-01-30T00:31:47;16.73;;;9.68;;
29712;SDS011;16623;53.632;10.016;2024-01-30T00:34:13;15.90;;;8.93;;
29712;SDS011;16623;53.632;10.016;2024-01-30T00:36:38;11.90;;;7.90;;
29712;SDS011;16623;53.632;10.016;2024-01-30T00:39:04;13.40;;;7.38;;
29712;SDS011;16623;53.632;10.016;2024-01-30T00:41:32;11.18;;;7.38;;
29712;SDS011;16623;53.632;10.016;2024-01-30T00:43:57;19.73;;;7.85;;
29712;SDS011;16623;53.632;10.016;2024-01-30T00:46:23;16.23;;;7.63;;
29712;SDS011;16623;53.632;10.016;2024-01-30T00:48:48;14.13;;;7.40;;
29712;SDS011;16623;53.632;10.016;2024-01-30T00:51:14;13.43;;;7.25;;
29712;SDS011;16623;53.632;10.016;2024-01-30T00:53:39;18.73;;;8.80;;
29712;SDS011;16623;53.632;10.016;2024-01-30T00:56:06;13.32;;;7.45;;
29712;SDS011;16623;53.632;10.016;2024-01-30T00:58:32;20.55;;;7.35;;
29712;SDS011;16623;53.632;10.016;2024-01-30T01:00:58;10.90;;;7.25;;
29712;SDS011;16623;53.632;10.016;2024-01-30T01:03:23;13.75;;;7.40;;
29712;SDS011;16623;53.632;10.016;2024-01-30T01:05:49;15.20;;;7.30;;
29712;SDS011;16623;53.632;10.016;2024-01-30T01:08:15;16.35;;;7.85;;
29712;SDS011;16623;53.632;10.016;2024-01-30T01:10:40;11.73;;;6.47;;
29712;SDS011;16623;53.632;10.016;2024-01-30T01:13:06;10.32;;;6.95;;
29712;SDS011;16623;53.632;10.016;2024-01-30T01:15:31;16.05;;;8.40;;
29712;SDS011;16623;53.632;10.016;2024-01-30T01:17:57;13.80;;;7.05;;
29712;SDS011;16623;53.632;10.016;2024-01-30T01:20:22;13.18;;;7.15;;
29712;SDS011;16623;53.632;10.016;2024-01-30T01:22:47;11.60;;;7.28;;
29712;SDS011;16623;53.632;10.016;2024-01-30T01:25:13;12.88;;;7.38;;
29712;SDS011;16623;53.632;10.016;2024-01-30T01:27:38;12.63;;;7.13;;
29712;SDS011;16623;53.632;10.016;2024-01-30T01:30:07;18.52;;;6.85;;
29712;SDS011;16623;53.632;10.016;2024-01-30T01:32:36;10.93;;;7.13;;
29712;SDS011;16623;53.632;10.016;2024-01-30T01:35:04;13.95;;;7.07;;
29712;SDS011;16623;53.632;10.016;2024-01-30T01:37:30;20.00;;;6.53;;
29712;SDS011;16623;53.632;10.016;2024-01-30T01:39:56;13.38;;;7.32;;
29712;SDS011;16623;53.632;10.016;2024-01-30T01:42:21;11.27;;;7.28;;
29712;SDS011;16623;53.632;10.016;2024-01-30T01:44:47;13.63;;;7.15;;
29712;SDS011;16623;53.632;10.016;2024-01-30T01:47:12;11.70;;;6.88;;
29712;SDS011;16623;53.632;10.016;2024-01-30T01:49:39;11.30;;;6.97;;
29712;SDS011;16623;53.632;10.016;2024-01-30T01:52:04;15.77;;;6.75;;
29712;SDS011;16623;53.632;10.016;2024-01-30T01:54:31;12.13;;;6.85;;
29712;SDS011;16623;53.632;10.016;2024-01-30T01:56:57;13.95;;;7.15;;
29712;SDS011;16623;53.632;10.016;2024-01-30T01:59:22;12.80;;;6.57;;
29712;SDS011;16623;53.632;10.016;2024-01-30T02:01:49;11.68;;;6.70;;
29712;SDS011;16623;53.632;10.016;2024-01-30T02:04:17;12.45;;;6.70;;
29712;SDS011;16623;53.632;10.016;2024-01-30T02:06:43;12.10;;;6.15;;
29712;SDS011;16623;53.632;10.016;2024-01-30T02:09:09;10.65;;;6.53;;
29712;SDS011;16623;53.632;10.016;2024-01-30T02:11:34;12.68;;;7.07;;
29712;SDS011;16623;53.632;10.016;2024-01-30T02:14:05;13.18;;;6.80;;
29712;SDS011;16623;53.632;10.016;2024-01-30T02:16:31;7.43;;;5.68;;
29712;SDS011;16623;53.632;10.016;2024-01-30T02:18:57;12.73;;;6.82;;
29712;SDS011;16623;53.632;10.016;2024-01-30T02:21:23;11.10;;;6.38;;
29712;SDS011;16623;53.632;10.016;2024-01-30T02:23:48;12.02;;;6.97;;
29712;SDS011;16623;53.632;10.016;2024-01-30T02:26:15;10.30;;;6.47;;
29712;SDS011;16623;53.632;10.016;2024-01-30T02:28:41;11.65;;;7.15;;
29712;SDS011;16623;53.632;10.016;2024-01-30T02:31:06;17.33;;;7.50;;
29712;SDS011;16623;53.632;10.016;2024-01-30T02:33:32;12.48;;;6.43;;
29712;SDS011;16623;53.632;10.016;2024-01-30T02:35:57;11.85;;;7.20;;
29712;SDS011;16623;53.632;10.016;2024-01-30T02:38:23;12.15;;;6.85;;
29712;SDS011;16623;53.632;10.016;2024-01-30T02:40:49;14.63;;;6.90;;
29712;SDS011;16623;53.632;10.016;2024-01-30T02:43:15;10.02;;;6.15;;
29712;SDS011;16623;53.632;10.016;2024-01-30T02:45:41;9.93;;;5.80;;
29712;SDS011;16623;53.632;10.016;2024-01-30T02:48:07;11.52;;;7.07;;
29712;SDS011;16623;53.632;10.016;2024-01-30T02:50:32;12.57;;;6.45;;
29712;SDS011;16623;53.632;10.016;2024-01-30T02:52:58;12.90;;;6.30;;
29712;SDS011;16623;53.632;10.016;2024-01-30T02:55:23;12.20;;;7.15;;
29712;SDS011;16623;53.632;10.016;2024-01-30T02:57:49;15.27;;;7.38;;
29712;SDS011;16623;53.632;10.016;2024-01-30T03:00:15;11.43;;;6.93;;
29712;SDS011;16623;53.632;10.016;2024-01-30T03:02:40;12.60;;;6.75;;
29712;SDS011;16623;53.632;10.016;2024-01-30T03:05:08;12.27;;;7.40;;
29712;SDS011;16623;53.632;10.016;2024-01-30T03:07:33;12.30;;;6.53;;
29712;SDS011;16623;53.632;10.016;2024-01-30T03:09:59;11.95;;;7.47;;
29712;SDS011;16623;53.632;10.016;2024-01-30T03:12:24;8.77;;;6.22;;
29712;SDS011;16623;53.632;10.016;2024-01-30T03:14:50;12.38;;;6.53;;
29712;SDS011;16623;53.632;10.016;2024-01-30T03:17:15;14.18;;;6.82;;
29712;SDS011;16623;53.632;10.016;2024-01-30T03:19:41;15.93;;;7.15;;
29712;SDS011;16623;53.632;10.016;2024-01-30T03:22:07;12.93;;;6.90;;
29712;SDS011;16623;53.632;10.016;2024-01-30T03:24:32;12.50;;;7.00;;
29712;SDS011;16623;53.632;10.016;2024-01-30T03:26:58;10.20;;;6.97;;
29712;SDS011;16623;53.632;10.016;2024-01-30T03:29:24;10.30;;;6.43;;
29712;SDS011;16623;53.632;10.016;2024-01-30T03:31:50;12.90;;;6.57;;
29712;SDS011;16623;53.632;10.016;2024-01-30T03:34:15;13.23;;;6.57;;
29712;SDS011;16623;53.632;10.016;2024-01-30T03:36:41;16.33;;;7.22;;
29712;SDS011;16623;53.632;10.016;2024-01-30T03:39:06;13.95;;;7.93;;
29712;SDS011;16623;53.632;10.016;2024-01-30T03:41:32;11.07;;;6.82;;
29712;SDS011;16623;53.632;10.016;2024-01-30T03:43:57;12.00;;;7.47;;
29712;SDS011;16623;53.632;10.016;2024-01-30T03:46:23;12.02;;;7.25;;
29712;SDS011;16623;53.632;10.016;2024-01-30T03:48:49;12.73;;;7.35;;
29712;SDS011;16623;53.632;10.016;2024-01-30T03:51:15;15.18;;;7.65;;
29712;SDS011;16623;53.632;10.016;2024-01-30T03:53:44;11.30;;;7.43;;
29712;SDS011;16623;53.632;10.016;2024-01-30T03:56:11;13.60;;;8.13;;
29712;SDS011;16623;53.632;10.016;2024-01-30T03:58:38;18.88;;;8.30;;
29712;SDS011;16623;53.632;10.016;2024-01-30T04:01:04;15.38;;;7.05;;
29712;SDS011;16623;53.632;10.016;2024-01-30T04:03:29;13.02;;;7.95;;
29712;SDS011;16623;53.632;10.016;2024-01-30T04:05:55;11.25;;;7.78;;
29712;SDS011;16623;53.632;10.016;2024-01-30T04:08:20;13.25;;;7.65;;
29712;SDS011;16623;53.632;10.016;2024-01-30T04:10:46;17.60;;;8.00;;
29712;SDS011;16623;53.632;10.016;2024-01-30T04:13:12;14.93;;;7.30;;
29712;SDS011;16623;53.632;10.016;2024-01-30T04:15:39;15.25;;;7.90;;
29712;SDS011;16623;53.632;10.016;2024-01-30T04:18:06;9.38;;;7.18;;
29712;SDS011;16623;53.632;10.016;2024-01-30T04:20:31;16.25;;;7.90;;
29712;SDS011;16623;53.632;10.016;2024-01-30T04:22:57;13.02;;;7.97;;
29712;SDS011;16623;53.632;10.016;2024-01-30T04:25:23;13.18;;;7.65;;
29712;SDS011;16623;53.632;10.016;2024-01-30T04:27:48;10.43;;;7.30;;
29712;SDS011;16623;53.632;10.016;2024-01-30T04:30:14;14.45;;;7.53;;
29712;SDS011;16623;53.632;10.016;2024-01-30T04:32:40;14.63;;;7.80;;
29712;SDS011;16623;53.632;10.016;2024-01-30T04:35:06;15.18;;;8.02;;
29712;SDS011;16623;53.632;10.016;2024-01-30T04:37:31;14.05;;;7.85;;
29712;SDS011;16623;53.632;10.016;2024-01-30T04:39:57;11.07;;;7.55;;
29712;SDS011;16623;53.632;10.016;2024-01-30T04:42:22;13.60;;;8.23;;
29712;SDS011;16623;53.632;10.016;2024-01-30T04:44:49;10.50;;;7.30;;
29712;SDS011;16623;53.632;10.016;2024-01-30T04:47:15;12.95;;;7.93;;
29712;SDS011;16623;53.632;10.016;2024-01-30T04:49:40;14.45;;;7.82;;
29712;SDS011;16623;53.632;10.016;2024-01-30T04:52:07;16.15;;;8.13;;
29712;SDS011;16623;53.632;10.016;2024-01-30T04:54:33;12.43;;;7.35;;
29712;SDS011;16623;53.632;10.016;2024-01-30T04:56:59;14.45;;;8.15;;
29712;SDS011;16623;53.632;10.016;2024-01-30T04:59:25;15.25;;;8.73;;
29712;SDS011;16623;53.632;10.016;2024-01-30T05:01:51;13.63;;;8.45;;
29712;SDS011;16623;53.632;10.016;2024-01-30T05:04:16;14.07;;;8.02;;
29712;SDS011;16623;53.632;10.016;2024-01-30T05:06:42;13.20;;;7.68;;
29712;SDS011;16623;53.632;10.016;2024-01-30T05:09:08;15.93;;;8.82;;
29712;SDS011;16623;53.632;10.016;2024-01-30T05:11:40;14.27;;;8.13;;
29712;SDS011;16623;53.632;10.016;2024-01-30T05:14:06;13.40;;;8.43;;
29712;SDS011;16623;53.632;10.016;2024-01-30T05:16:32;15.52;;;8.80;;
29712;SDS011;16623;53.632;10.016;2024-01-30T05:18:58;13.07;;;7.70;;
29712;SDS011;16623;53.632;10.016;2024-01-30T05:21:24;22.05;;;8.73;;
29712;SDS011;16623;53.632;10.016;2024-01-30T05:23:49;15.30;;;8.85;;
29712;SDS011;16623;53.632;10.016;2024-01-30T05:26:15;13.55;;;8.25;;
29712;SDS011;16623;53.632;10.016;2024-01-30T05:28:40;14.30;;;8.68;;
29712;SDS011;16623;53.632;10.016;2024-01-30T05:31:06;13.85;;;9.88;;
29712;SDS011;16623;53.632;10.016;2024-01-30T05:33:32;15.27;;;9.05;;
29712;SDS011;16623;53.632;10.016;2024-01-30T05:35:58;17.95;;;9.65;;
29712;SDS011;16623;53.632;10.016;2024-01-30T05:38:24;16.35;;;9.35;;
29712;SDS011;16623;53.632;10.016;2024-01-30T05:40:50;15.25;;;8.10;;
29712;SDS011;16623;53.632;10.016;2024-01-30T05:43:15;20.17;;;11.02;;
29712;SDS011;16623;53.632;10.016;2024-01-30T05:45:41;15.95;;;8.57;;
29712;SDS011;16623;53.632;10.016;2024-01-30T05:48:06;17.23;;;8.60;;
29712;SDS011;16623;53.632;10.016;2024-01-30T05:50:32;13.82;;;8.13;;
29712;SDS011;16623;53.632;10.016;2024-01-30T05:52:58;16.80;;;9.43;;
29712;SDS011;16623;53.632;10.016;2024-01-30T05:55:23;14.55;;;8.18;;
29712;SDS011;16623;53.632;10.016;2024-01-30T05:57:49;18.77;;;9.52;;
29712;SDS011;16623;53.632;10.016;2024-01-30T06:00:15;15.20;;;9.02;;
29712;SDS011;16623;53.632;10.016;2024-01-30T06:02:41;15.70;;;8.95;;
29712;SDS011;16623;53.632;10.016;2024-01-30T06:05:07;18.88;;;9.45;;
29712;SDS011;16623;53.632;10.016;2024-01-30T06:07:33;14.93;;;9.10;;
29712;SDS011;16623;53.632;10.016;2024-01-30T06:09:58;21.63;;;9.80;;
29712;SDS011;16623;53.632;10.016;2024-01-30T06:12:27;14.38;;;8.73;;
29712;SDS011;16623;53.632;10.016;2024-01-30T06:14:53;19.08;;;9.68;;
29712;SDS011;16623;53.632;10.016;2024-01-30T06:17:21;14.65;;;8.40;;
29712;SDS011;16623;53.632;10.016;2024-01-30T06:19:47;18.20;;;10.35;;
29712;SDS011;16623;53.632;10.016;2024-01-30T06:22:13;19.20;;;9.32;;
29712;SDS011;16623;53.632;10.016;2024-01-30T06:24:38;16.00;;;8.77;;
29712;SDS011;16623;53.632;10.016;2024-01-30T06:27:04;16.65;;;9.48;;
29712;SDS011;16623;53.632;10.016;2024-01-30T06:29:29;14.90;;;8.95;;
29712;SDS011;16623;53.632;10.016;2024-01-30T06:31:55;15.75;;;10.27;;
29712;SDS011;16623;53.632;10.016;2024-01-30T06:34:21;16.98;;;9.50;;
29712;SDS011;16623;53.632;10.016;2024-01-30T06:36:46;16.75;;;9.48;;
29712;SDS011;16623;53.632;10.016;2024-01-30T06:39:12;13.50;;;9.02;;
29712;SDS011;16623;53.632;10.016;2024-01-30T06:41:38;15.43;;;8.90;;
29712;SDS011;16623;53.632;10.016;2024-01-30T06:44:03;22.80;;;9.77;;
29712;SDS011;16623;53.632;10.016;2024-01-30T06:46:31;18.40;;;10.00;;
29712;SDS011;16623;53.632;10.016;2024-01-30T06:48:57;16.52;;;9.30;;
29712;SDS011;16623;53.632;10.016;2024-01-30T06:51:23;16.77;;;10.05;;
29712;SDS011;16623;53.632;10.016;2024-01-30T06:53:48;17.70;;;9.75;;
29712;SDS011;16623;53.632;10.016;2024-01-30T06:56:14;17.30;;;9.73;;
29712;SDS011;16623;53.632;10.016;2024-01-30T06:58:39;16.70;;;9.65;;
29712;SDS011;16623;53.632;10.016;2024-01-30T07:01:06;17.05;;;9.18;;
29712;SDS011;16623;53.632;10.016;2024-01-30T07:03:31;20.15;;;10.27;;
29712;SDS011;16623;53.632;10.016;2024-01-30T07:05:57;18.83;;;9.80;;
29712;SDS011;16623;53.632;10.016;2024-01-30T07:08:22;16.73;;;10.27;;
29712;SDS011;16623;53.632;10.016;2024-01-30T07:10:48;17.58;;;10.00;;
29712;SDS011;16623;53.632;10.016;2024-01-30T07:13:13;22.65;;;10.55;;
29712;SDS011;16623;53.632;10.016;2024-01-30T07:15:41;15.80;;;9.30;;
29712;SDS011;16623;53.632;10.016;2024-01-30T07:18:07;17.08;;;10.43;;
29712;SDS011;16623;53.632;10.016;2024-01-30T07:20:34;15.45;;;10.32;;
29712;SDS011;16623;53.632;10.016;2024-01-30T07:23:00;14.63;;;9.77;;
29712;SDS011;16623;53.632;10.016;2024-01-30T07:25:25;16.08;;;9.50;;
29712;SDS011;16623;53.632;10.016;2024-01-30T07:27:54;17.10;;;10.50;;
29712;SDS011;16623;53.632;10.016;2024-01-30T07:30:23;16.42;;;9.57;;
29712;SDS011;16623;53.632;10.016;2024-01-30T07:32:49;22.15;;;10.07;;
29712;SDS011;16623;53.632;10.016;2024-01-30T07:35:14;21.60;;;10.60;;
29712;SDS011;16623;53.632;10.016;2024-01-30T07:37:40;17.80;;;10.32;;
29712;SDS011;16623;53.632;10.016;2024-01-30T07:40:06;17.92;;;10.77;;
29712;SDS011;16623;53.632;10.016;2024-01-30T07:42:32;17.17;;;9.98;;
29712;SDS011;16623;53.632;10.016;2024-01-30T07:44:58;18.85;;;10.68;;
29712;SDS011;16623;53.632;10.016;2024-01-30T07:47:24;15.65;;;10.60;;
29712;SDS011;16623;53.632;10.016;2024-01-30T07:49:49;18.65;;;11.52;;
29712;SDS011;16623;53.632;10.016;2024-01-30T07:52:16;20.83;;;11.02;;
29712;SDS011;16623;53.632;10.016;2024-01-30T07:54:42;24.75;;;11.48;;
29712;SDS011;16623;53.632;10.016;2024-01-30T07:57:07;21.15;;;11.60;;
29712;SDS011;16623;53.632;10.016;2024-01-30T07:59:34;19.25;;;11.15;;
29712;SDS011;16623;53.632;10.016;2024-01-30T08:01:59;23.38;;;10.00;;
29712;SDS011;16623;53.632;10.016;2024-01-30T08:04:25;19.95;;;10.82;;
29712;SDS011;16623;53.632;10.016;2024-01-30T08:06:50;23.33;;;11.60;;
29712;SDS011;16623;53.632;10.016;2024-01-30T08:09:16;18.77;;;9.95;;
29712;SDS011;16623;53.632;10.016;2024-01-30T08:11:41;19.15;;;9.68;;
29712;SDS011;16623;53.632;10.016;2024-01-30T08:14:07;29.17;;;11.55;;
29712;SDS011;16623;53.632;10.016;2024-01-30T08:16:32;17.55;;;10.02;;
29712;SDS011;16623;53.632;10.016;2024-01-30T08:18:58;17.75;;;11.38;;
29712;SDS011;16623;53.632;10.016;2024-01-30T08:21:23;24.85;;;11.15;;
29712;SDS011;16623;53.632;10.016;2024-01-30T08:23:49;23.02;;;11.25;;
29712;SDS011;16623;53.632;10.016;2024-01-30T08:26:15;17.92;;;10.75;;
29712;SDS011;16623;53.632;10.016;2024-01-30T08:28:40;18.33;;;10.90;;
29712;SDS011;16623;53.632;10.016;2024-01-30T08:31:06;18.52;;;10.40;;
29712;SDS011;16623;53.632;10.016;2024-01-30T08:33:31;18.52;;;11.20;;
29712;SDS011;16623;53.632;10.016;2024-01-30T08:35:57;21.00;;;10.57;;
29712;SDS011;16623;53.632;10.016;2024-01-30T08:38:22;18.60;;;11.75;;
29712;SDS011;16623;53.632;10.016;2024-01-30T08:40:48;20.30;;;10.88;;
29712;SDS011;16623;53.632;10.016;2024-01-30T08:43:14;21.33;;;11.80;;
29712;SDS011;16623;53.632;10.016;2024-01-30T08:45:40;19.35;;;11.75;;
29712;SDS011;16623;53.632;10.016;2024-01-30T08:48:06;17.77;;;10.88;;
29712;SDS011;16623;53.632;10.016;2024-01-30T08:50:34;21.45;;;10.85;;
29712;SDS011;16623;53.632;10.016;2024-01-30T08:52:59;19.17;;;10.77;;
29712;SDS011;16623;53.632;10.016;2024-01-30T08:55:25;19.88;;;10.77;;
29712;SDS011;16623;53.632;10.016;2024-01-30T08:57:50;18.67;;;11.23;;
29712;SDS011;16623;53.632;10.016;2024-01-30T09:00:17;18.10;;;10.68;;
29712;SDS011;16623;53.632;10.016;2024-01-30T09:02:42;20.33;;;11.77;;
29712;SDS011;16623;53.632;10.016;2024-01-30T09:05:11;18.40;;;11.32;;
29712;SDS011;16623;53.632;10.016;2024-01-30T09:07:39;23.33;;;11.93;;
29712;SDS011;16623;53.632;10.016;2024-01-30T09:10:04;17.13;;;11.23;;
29712;SDS011;16623;53.632;10.016;2024-01-30T09:12:31;19.80;;;10.93;;
29712;SDS011;16623;53.632;10.016;2024-01-30T09:14:57;22.88;;;11.55;;
29712;SDS011;16623;53.632;10.016;2024-01-30T09:17:23;20.20;;;11.30;;
29712;SDS011;16623;53.632;10.016;2024-01-30T09:19:49;21.30;;;12.40;;
29712;SDS011;16623;53.632;10.016;2024-01-30T09:22:15;19.35;;;10.95;;
29712;SDS011;16623;53.632;10.016;2024-01-30T09:24:42;22.73;;;11.80;;
29712;SDS011;16623;53.632;10.016;2024-01-30T09:27:08;18.58;;;12.25;;
29712;SDS011;16623;53.632;10.016;2024-01-30T09:29:33;27.67;;;11.38;;
29712;SDS011;16623;53.632;10.016;2024-01-30T09:32:01;28.83;;;11.43;;
29712;SDS011;16623;53.632;10.016;2024-01-30T09:34:27;21.08;;;11.07;;
29712;SDS011;16623;53.632;10.016;2024-01-30T09:36:53;21.45;;;11.95;;
29712;SDS011;16623;53.632;10.016;2024-01-30T09:39:18;23.38;;;12.05;;
29712;SDS011;16623;53.632;10.016;2024-01-30T09:41:48;22.27;;;12.25;;
29712;SDS011;16623;53.632;10.016;2024-01-30T09:44:18;23.02;;;11.82;;
29712;SDS011;16623;53.632;10.016;2024-01-30T09:46:46;17.40;;;11.18;;
29712;SDS011;16623;53.632;10.016;2024-01-30T09:49:13;23.75;;;11.00;;
29712;SDS011;16623;53.632;10.016;2024-01-30T09:51:39;21.38;;;10.68;;
29712;SDS011;16623;53.632;10.016;2024-01-30T09:54:05;21.15;;;10.88;;
29712;SDS011;16623;53.632;10.016;2024-01-30T09:56:33;20.65;;;11.18;;
29712;SDS011;16623;53.632;10.016;2024-01-30T09:58:59;24.02;;;12.25;;
29712;SDS011;16623;53.632;10.016;2024-01-30T10:01:24;23.02;;;12.23;;
29712;SDS011;16623;53.632;10.016;2024-01-30T10:03:50;24.90;;;11.82;;
29712;SDS011;16623;53.632;10.016;2024-01-30T10:06:20;27.30;;;12.23;;
29712;SDS011;16623;53.632;10.016;2024-01-30T10:08:47;21.48;;;11.27;;
29712;SDS011;16623;53.632;10.016;2024-01-30T10:11:13;22.45;;;12.73;;
29712;SDS011;16623;53.632;10.016;2024-01-30T10:13:38;24.80;;;11.27;;
29712;SDS011;16623;53.632;10.016;2024-01-30T10:16:04;28.00;;;11.98;;
29712;SDS011;16623;53.632;10.016;2024-01-30T10:18:31;25.38;;;11.75;;
29712;SDS011;16623;53.632;10.016;2024-01-30T10:20:57;22.48;;;10.80;;
29712;SDS011;16623;53.632;10.016;2024-01-30T10:23:23;21.13;;;11.23;;
29712;SDS011;16623;53.632;10.016;2024-01-30T10:25:50;17.48;;;10.32;;
29712;SDS011;16623;53.632;10.016;2024-01-30T10:28:16;19.48;;;11.25;;
29712;SDS011;16623;53.632;10.016;2024-01-30T10:30:45;19.33;;;10.40;;
29712;SDS011;16623;53.632;10.016;2024-01-30T10:33:12;19.25;;;10.70;;
29712;SDS011;16623;53.632;10.016;2024-01-30T10:35:37;21.98;;;11.32;;
29712;SDS011;16623;53.632;10.016;2024-01-30T10:38:03;21.75;;;10.98;;
29712;SDS011;16623;53.632;10.016;2024-01-30T10:40:32;17.45;;;11.07;;
29712;SDS011;16623;53.632;10.016;2024-01-30T10:43:00;16.92;;;10.68;;
29712;SDS011;16623;53.632;10.016;2024-01-30T10:45:28;25.30;;;11.98;;
29712;SDS011;16623;53.632;10.016;2024-01-30T10:47:54;17.70;;;10.63;;
29712;SDS011;16623;53.632;10.016;2024-01-30T10:50:26;25.50;;;11.38;;
29712;SDS011;16623;53.632;10.016;2024-01-30T10:52:53;20.40;;;11.15;;
29712;SDS011;16623;53.632;10.016;2024-01-30T10:55:20;23.95;;;11.35;;
29712;SDS011;16623;53.632;10.016;2024-01-30T10:57:48;23.00;;;11.55;;
29712;SDS011;16623;53.632;10.016;2024-01-30T11:00:15;16.98;;;11.23;;
29712;SDS011;16623;53.632;10.016;2024-01-30T11:02:43;25.00;;;10.50;;
29712;SDS011;16623;53.632;10.016;2024-01-30T11:05:10;20.25;;;10.65;;
29712;SDS011;16623;53.632;10.016;2024-01-30T11:07:38;24.42;;;11.30;;
29712;SDS011;16623;53.632;10.016;2024-01-30T11:10:05;23.15;;;10.73;;
29712;SDS011;16623;53.632;10.016;2024-01-30T11:12:37;18.60;;;11.13;;
29712;SDS011;16623;53.632;10.016;2024-01-30T11:17:53;16.60;;;10.48;;
29712;SDS011;16623;53.632;10.016;2024-01-30T11:20:26;18.65;;;10.63;;
29712;SDS011;16623;53.632;10.016;2024-01-30T11:22:55;18.20;;;10.43;;
29712;SDS011;16623;53.632;10.016;2024-01-30T11:25:22;18.90;;;10.80;;
29712;SDS011;16623;53.632;10.016;2024-01-30T11:27:52;20.58;;;11.25;;
29712;SDS011;16623;53.632;10.016;2024-01-30T11:30:22;21.52;;;11.32;;
29712;SDS011;16623;53.632;10.016;2024-01-30T11:33:05;22.40;;;11.07;;
29712;SDS011;16623;53.632;10.016;2024-01-30T11:35:34;17.45;;;10.73;;
29712;SDS011;16623;53.632;10.016;2024-01-30T11:38:04;17.98;;;10.95;;
29712;SDS011;16623;53.632;10.016;2024-01-30T11:40:31;18.45;;;10.43;;
29712;SDS011;16623;53.632;10.016;2024-01-30T11:42:58;23.92;;;11.10;;
29712;SDS011;16623;53.632;10.016;2024-01-30T11:45:28;20.90;;;10.90;;
29712;SDS011;16623;53.632;10.016;2024-01-30T11:47:54;17.75;;;11.45;;
29712;SDS011;16623;53.632;10.016;2024-01-30T11:50:20;21.88;;;11.10;;
29712;SDS011;16623;53.632;10.016;2024-01-30T11:52:46;18.75;;;10.60;;
29712;SDS011;16623;53.632;10.016;2024-01-30T11:55:13;21.15;;;11.63;;
29712;SDS011;16623;53.632;10.016;2024-01-30T11:57:39;16.25;;;10.85;;
29712;SDS011;16623;53.632;10.016;2024-01-30T12:00:05;20.58;;;10.98;;
29712;SDS011;16623;53.632;10.016;2024-01-30T12:02:39;17.50;;;10.35;;
29712;SDS011;16623;53.632;10.016;2024-01-30T12:05:05;19.67;;;10.55;;
29712;SDS011;16623;53.632;10.016;2024-01-30T12:07:31;22.15;;;10.75;;
29712;SDS011;16623;53.632;10.016;2024-01-30T12:09:57;16.83;;;11.00;;
29712;SDS011;16623;53.632;10.016;2024-01-30T12:12:27;18.90;;;10.75;;
29712;SDS011;16623;53.632;10.016;2024-01-30T12:14:53;23.15;;;11.60;;
29712;SDS011;16623;53.632;10.016;2024-01-30T12:17:29;21.48;;;10.63;;
29712;SDS011;16623;53.632;10.016;2024-01-30T12:20:12;16.88;;;9.75;;
29712;SDS011;16623;53.632;10.016;2024-01-30T12:22:40;23.25;;;11.07;;
29712;SDS011;16623;53.632;10.016;2024-01-30T12:25:10;20.85;;;11.68;;
29712;SDS011;16623;53.632;10.016;2024-01-30T12:27:36;20.25;;;11.10;;
29712;SDS011;16623;53.632;10.016;2024-01-30T12:30:09;19.35;;;10.73;;
29712;SDS011;16623;53.632;10.016;2024-01-30T12:32:42;24.98;;;11.30;;
29712;SDS011;16623;53.632;10.016;2024-01-30T12:35:12;16.38;;;10.40;;
29712;SDS011;16623;53.632;10.016;2024-01-30T12:37:42;18.65;;;10.70;;
29712;SDS011;16623;53.632;10.016;2024-01-30T12:40:09;23.17;;;10.45;;
29712;SDS011;16623;53.632;10.016;2024-01-30T12:42:36;17.23;;;10.07;;
29712;SDS011;16623;53.632;10.016;2024-01-30T12:45:02;23.02;;;11.00;;
29712;SDS011;16623;53.632;10.016;2024-01-30T12:47:29;22.33;;;10.93;;
29712;SDS011;16623;53.632;10.016;2024-01-30T12:49:54;17.50;;;10.02;;
29712;SDS011;16623;53.632;10.016;2024-01-30T12:52:20;18.92;;;9.30;;
29712;SDS011;16623;53.632;10.016;2024-01-30T12:54:47;21.05;;;9.95;;
29712;SDS011;16623;53.632;10.016;2024-01-30T12:57:16;19.33;;;9.35;;
29712;SDS011;16623;53.632;10.016;2024-01-30T12:59:42;18.67;;;9.48;;
29712;SDS011;16623;53.632;10.016;2024-01-30T13:02:09;13.10;;;8.60;;
29712;SDS011;16623;53.632;10.016;2024-01-30T13:04:35;20.58;;;9.50;;
29712;SDS011;16623;53.632;10.016;2024-01-30T13:07:01;15.50;;;8.73;;
29712;SDS011;16623;53.632;10.016;2024-01-30T13:09:27;15.27;;;8.77;;
29712;SDS011;16623;53.632;10.016;2024-01-30T13:11:54;16.05;;;10.20;;
29712;SDS011;16623;53.632;10.016;2024-01-30T13:14:19;17.75;;;9.55;;
29712;SDS011;16623;53.632;10.016;2024-01-30T13:16:45;18.73;;;9.40;;
29712;SDS011;16623;53.632;10.016;2024-01-30T13:19:11;14.30;;;8.75;;
29712;SDS011;16623;53.632;10.016;2024-01-30T13:21:36;17.10;;;8.88;;
29712;SDS011;16623;53.632;10.016;2024-01-30T13:24:02;16.17;;;8.27;;
29712;SDS011;16623;53.632;10.016;2024-01-30T13:26:28;14.85;;;8.88;;
29712;SDS011;16623;53.632;10.016;2024-01-30T13:28:56;16.25;;;9.32;;
29712;SDS011;16623;53.632;10.016;2024-01-30T13:31:22;15.52;;;9.27;;
29712;SDS011;16623;53.632;10.016;2024-01-30T13:33:47;13.40;;;8.77;;
29712;SDS011;16623;53.632;10.016;2024-01-30T13:36:14;17.10;;;9.05;;
29712;SDS011;16623;53.632;10.016;2024-01-30T13:38:39;18.08;;;9.45;;
29712;SDS011;16623;53.632;10.016;2024-01-30T13:41:05;15.52;;;8.95;;
29712;SDS011;16623;53.632;10.016;2024-01-30T13:43:31;15.85;;;9.85;;
29712;SDS011;16623;53.632;10.016;2024-01-30T13:45:56;16.08;;;9.00;;
29712;SDS011;16623;53.632;10.016;2024-01-30T13:48:23;15.20;;;8.80;;
29712;SDS011;16623;53.632;10.016;2024-01-30T13:50:48;17.98;;;9.45;;
29712;SDS011;16623;53.632;10.016;2024-01-30T13:53:14;16.75;;;9.68;;
29712;SDS011;16623;53.632;10.016;2024-01-30T13:55:39;17.05;;;9.18;;
29712;SDS011;16623;53.632;10.016;2024-01-30T13:58:05;17.25;;;9.60;;
29712;SDS011;16623;53.632;10.016;2024-01-30T14:00:31;14.30;;;9.57;;
29712;SDS011;16623;53.632;10.016;2024-01-30T14:02:57;24.70;;;10.27;;
29712;SDS011;16623;53.632;10.016;2024-01-30T14:05:24;16.05;;;9.45;;
29712;SDS011;16623;53.632;10.016;2024-01-30T14:07:50;19.65;;;10.48;;
29712;SDS011;16623;53.632;10.016;2024-01-30T14:10:17;20.83;;;9.80;;
29712;SDS011;16623;53.632;10.016;2024-01-30T14:12:43;19.70;;;10.63;;